SUMU/MVD METAR and TAF weather

Enter ICAO airport designator
Station Type Date Time Source
SUMU METAR 2021/07/30 23:00 UTC NOAA

SUMU 302300Z 02006KT CAVOK 10/01 Q1025 NOSIG


Station Type Date Time Source
SUMU Decoded METAR 2021/07/30 23:00 UTC NOAA

Carrasco, Uruguay (SUMU) 34-50S 056-00W 32M
Jul 30, 2021 - 07:00 PM EDT / 2021.07.30 2300 UTC
Wind: from the NNE (020 degrees) at 7 MPH (6 KT):0
Visibility: greater than 7 mile(s):0
Temperature: 50 F (10 C)
Dew Point: 33 F (1 C)
Relative Humidity: 53%
Pressure (altimeter): 30.27 in. Hg (1025 hPa)
ob: SUMU 302300Z 02006KT CAVOK 10/01 Q1025 NOSIG
cycle: 23

Station Type Date Time Source
SUMU TAF 2021/07/30 18:43 UTC NOAA

TAF SUMU 301730Z 3018/3118 35008KT CAVOK TX15/3118Z TN03/3110Z

Example: see airport list